createdAt,value
2019-02-05T00:02:16.918Z,30.47
2019-02-05T00:04:44.458Z,35.67
2019-02-05T00:07:12.521Z,29.07
2019-02-05T00:09:40.074Z,31.13
2019-02-05T00:12:07.888Z,28.03
2019-02-05T00:14:35.485Z,28.73
2019-02-05T00:17:03.071Z,27.00
2019-02-05T00:19:30.547Z,28.53
2019-02-05T00:21:58.043Z,27.80
2019-02-05T00:24:26.116Z,26.73
2019-02-05T00:26:53.860Z,30.70
2019-02-05T00:29:21.383Z,28.50
2019-02-05T00:31:48.887Z,36.23
2019-02-05T00:34:16.355Z,29.90
2019-02-05T00:36:43.858Z,34.63
2019-02-05T00:39:11.301Z,31.90
2019-02-05T00:41:38.806Z,33.30
2019-02-05T00:44:06.324Z,34.43
2019-02-05T00:46:33.876Z,36.67
2019-02-05T00:49:01.257Z,34.53
2019-02-05T00:51:28.799Z,34.00
2019-02-05T00:53:56.358Z,29.23
2019-02-05T00:56:23.905Z,28.33
2019-02-05T00:58:51.426Z,29.90
2019-02-05T01:01:19.024Z,34.23
2019-02-05T01:03:46.611Z,27.87
2019-02-05T01:06:14.196Z,28.30
2019-02-05T01:08:41.634Z,28.17
2019-02-05T01:11:09.131Z,28.83
2019-02-05T01:13:36.739Z,32.80
2019-02-05T01:16:04.666Z,31.93
2019-02-05T01:18:32.388Z,33.33
2019-02-05T01:20:59.935Z,36.40
2019-02-05T01:23:27.548Z,31.63
2019-02-05T01:25:55.176Z,29.37
2019-02-05T01:28:22.929Z,32.03
2019-02-05T01:30:50.314Z,31.30
2019-02-05T01:33:18.692Z,31.60
2019-02-05T01:35:46.567Z,32.53
2019-02-05T01:38:13.900Z,36.33
2019-02-05T01:40:41.399Z,34.37
2019-02-05T01:43:08.854Z,34.40
2019-02-05T01:45:36.331Z,28.23
2019-02-05T01:48:04.763Z,34.37
2019-02-05T01:50:32.242Z,35.07
2019-02-05T01:53:00.070Z,33.50
2019-02-05T01:55:27.637Z,36.57
2019-02-05T01:57:54.994Z,38.57
2019-02-05T02:00:31.391Z,34.23
2019-02-05T02:02:59.054Z,32.77
2019-02-05T02:05:28.027Z,33.27
2019-02-05T02:07:55.991Z,34.63
2019-02-05T02:10:25.327Z,33.10
2019-02-05T02:12:53.402Z,34.60
2019-02-05T02:15:21.046Z,36.10
2019-02-05T02:17:48.520Z,34.07
2019-02-05T02:20:17.106Z,36.73
2019-02-05T02:22:44.958Z,35.57
2019-02-05T02:25:12.992Z,32.40
2019-02-05T02:27:40.686Z,37.40
2019-02-05T02:30:17.111Z,39.67
2019-02-05T02:32:44.653Z,37.63
2019-02-05T02:35:12.211Z,38.30
2019-02-05T02:37:39.658Z,39.47
2019-02-05T02:40:09.548Z,36.67
2019-02-05T02:42:37.438Z,44.73
2019-02-05T02:45:06.268Z,45.03
2019-02-05T02:47:33.756Z,40.73
2019-02-05T02:50:01.235Z,38.23
2019-02-05T02:52:28.802Z,40.10
2019-02-05T02:54:56.234Z,40.47
2019-02-05T02:57:24.080Z,35.80
2019-02-05T02:59:51.679Z,36.20
2019-02-05T03:02:19.236Z,36.57
2019-02-05T03:04:46.670Z,37.20
2019-02-05T03:07:14.276Z,37.50
2019-02-05T03:09:41.762Z,36.90
2019-02-05T03:12:09.569Z,33.70
2019-02-05T03:14:37.048Z,38.13
2019-02-05T03:17:04.867Z,40.13
2019-02-05T03:19:32.491Z,38.07
2019-02-05T03:21:59.855Z,44.43
2019-02-05T03:24:27.454Z,40.00
2019-02-05T03:26:55.018Z,35.17
2019-02-05T03:29:22.597Z,35.13
2019-02-05T03:31:50.173Z,39.07
2019-02-05T03:34:17.704Z,38.80
2019-02-05T03:36:45.633Z,39.03
2019-02-05T03:39:13.412Z,38.33
2019-02-05T03:41:40.981Z,38.07
2019-02-05T03:44:08.604Z,40.57
2019-02-05T03:46:36.203Z,40.67
2019-02-05T03:49:03.884Z,40.50
2019-02-05T03:51:52.018Z,43.63
2019-02-05T03:54:35.945Z,39.87
2019-02-05T03:57:34.896Z,41.27
2019-02-05T04:00:44.357Z,34.27
2019-02-05T04:03:27.422Z,37.10
2019-02-05T04:06:42.527Z,45.17
2019-02-05T04:09:41.487Z,45.03
2019-02-05T04:12:24.742Z,41.37
2019-02-05T04:15:17.951Z,45.67
2019-02-05T04:18:17.623Z,42.93
2019-02-05T04:21:25.809Z,42.10
2019-02-05T04:24:36.975Z,42.00
2019-02-05T04:27:26.056Z,44.80
2019-02-05T04:30:44.541Z,41.77
2019-02-05T04:33:56.796Z,45.03
2019-02-05T04:37:12.040Z,44.43
2019-02-05T04:40:45.751Z,45.20
2019-02-05T04:43:54.971Z,41.13
2019-02-05T04:46:30.681Z,43.13
2019-02-05T04:49:25.668Z,46.43
2019-02-05T04:52:15.109Z,45.90
2019-02-05T04:55:10.599Z,40.77
2019-02-05T04:58:07.489Z,43.23
2019-02-05T05:01:04.978Z,45.47
2019-02-05T05:04:07.101Z,43.57
2019-02-05T05:07:19.532Z,40.87
2019-02-05T05:10:00.531Z,38.70
2019-02-05T05:12:28.808Z,43.73
2019-02-05T05:14:56.509Z,44.30
2019-02-05T05:17:24.377Z,40.17
2019-02-05T05:19:52.251Z,43.80
2019-02-05T05:22:19.816Z,48.57
2019-02-05T05:24:47.969Z,42.73
2019-02-05T05:27:17.762Z,44.17
2019-02-05T05:29:45.835Z,44.40
2019-02-05T05:32:13.583Z,46.80
2019-02-05T05:34:40.944Z,44.43
2019-02-05T05:37:07.477Z,53.57
2019-02-05T05:39:35.323Z,51.07
2019-02-05T05:42:02.814Z,45.20
2019-02-05T05:44:30.184Z,46.63
2019-02-05T05:46:58.763Z,41.13
2019-02-05T05:49:26.262Z,43.23
2019-02-05T05:51:53.746Z,47.23
2019-02-05T05:54:21.223Z,46.57
2019-02-05T05:56:48.827Z,46.67
2019-02-05T05:59:16.431Z,44.30
2019-02-05T06:01:44.097Z,38.50
2019-02-05T06:04:11.675Z,47.17
2019-02-05T06:06:39.417Z,50.50
2019-02-05T06:09:08.225Z,50.07
2019-02-05T06:11:35.548Z,39.50
2019-02-05T06:14:04.292Z,42.93
2019-02-05T06:16:31.791Z,41.57
2019-02-05T06:18:59.375Z,45.90
2019-02-05T06:21:26.800Z,40.03
2019-02-05T06:23:54.304Z,42.93
2019-02-05T06:26:23.200Z,41.20
2019-02-05T06:28:50.808Z,44.07
2019-02-05T06:31:18.480Z,44.40
2019-02-05T06:33:45.875Z,42.73
2019-02-05T06:36:13.335Z,38.87
2019-02-05T06:38:41.016Z,46.50
2019-02-05T06:41:08.513Z,45.77
2019-02-05T06:43:36.324Z,51.00
2019-02-05T06:46:04.038Z,52.57
2019-02-05T06:48:31.648Z,52.73
2019-02-05T06:50:59.472Z,51.33
2019-02-05T06:53:26.963Z,45.80
2019-02-05T06:55:54.484Z,53.43
2019-02-05T06:58:22.230Z,62.30
2019-02-05T07:00:49.732Z,72.03
2019-02-05T07:03:17.600Z,74.93
2019-02-05T07:05:45.018Z,70.37
2019-02-05T07:08:12.623Z,78.20
2019-02-05T07:10:40.101Z,68.47
2019-02-05T07:13:07.671Z,66.33
2019-02-05T07:15:35.251Z,57.97
2019-02-05T07:18:02.717Z,50.30
2019-02-05T07:20:30.300Z,50.20
2019-02-05T07:22:57.892Z,50.57
2019-02-05T07:25:25.498Z,52.03
2019-02-05T07:27:53.094Z,48.80
2019-02-05T07:30:22.041Z,47.97
2019-02-05T07:32:49.739Z,48.43
2019-02-05T07:35:17.341Z,47.43
2019-02-05T07:37:45.073Z,48.40
2019-02-05T07:40:14.288Z,47.67
2019-02-05T07:42:41.983Z,55.00
2019-02-05T07:45:11.551Z,53.07
2019-02-05T07:47:39.901Z,43.83
2019-02-05T07:50:10.687Z,47.90
2019-02-05T07:52:38.128Z,49.53
2019-02-05T07:55:06.388Z,52.13
2019-02-05T07:57:34.056Z,52.63
2019-02-05T08:00:02.262Z,49.13
2019-02-05T08:02:32.242Z,55.93
2019-02-05T08:05:00.793Z,51.10
2019-02-05T08:07:28.819Z,51.70
2019-02-05T08:09:56.408Z,46.97
2019-02-05T08:12:24.078Z,50.20
2019-02-05T08:14:51.878Z,43.17
2019-02-05T08:17:19.344Z,42.27
2019-02-05T08:19:47.522Z,45.20
2019-02-05T08:22:15.928Z,48.47
2019-02-05T08:24:43.388Z,44.63
2019-02-05T08:27:11.115Z,52.87
2019-02-05T08:29:38.689Z,40.20
2019-02-05T08:32:06.185Z,41.53
2019-02-05T08:34:33.627Z,45.70
2019-02-05T08:37:01.205Z,51.13
2019-02-05T08:39:28.963Z,45.47
2019-02-05T08:41:56.899Z,42.80
2019-02-05T08:44:24.389Z,42.30
2019-02-05T08:46:51.897Z,47.10
2019-02-05T08:49:22.761Z,41.60
2019-02-05T08:51:51.617Z,48.37
2019-02-05T08:54:19.219Z,37.43
2019-02-05T08:56:46.522Z,48.13
2019-02-05T08:59:14.302Z,42.07
2019-02-05T09:01:41.809Z,44.63
2019-02-05T09:04:09.378Z,45.73
2019-02-05T09:06:37.014Z,44.77
2019-02-05T09:09:07.417Z,48.13
2019-02-05T09:11:36.143Z,43.83
2019-02-05T09:14:11.175Z,46.40
2019-02-05T09:16:33.342Z,50.50
2019-02-05T09:19:01.539Z,47.80
2019-02-05T09:21:29.158Z,47.20
2019-02-05T09:23:56.615Z,47.60
2019-02-05T09:26:24.741Z,47.10
2019-02-05T09:28:54.941Z,47.07
2019-02-05T09:31:22.542Z,46.37
2019-02-05T09:33:49.993Z,48.70
2019-02-05T09:36:17.905Z,40.27
2019-02-05T09:38:45.934Z,51.87
2019-02-05T09:41:13.587Z,51.10
2019-02-05T09:43:41.139Z,47.53
2019-02-05T09:46:17.432Z,53.10
2019-02-05T09:48:45.017Z,43.27
2019-02-05T09:51:15.877Z,41.83
2019-02-05T09:53:43.587Z,43.33
2019-02-05T09:56:11.075Z,50.80
2019-02-05T09:58:38.617Z,47.90
2019-02-05T10:01:07.732Z,51.23
2019-02-05T10:03:35.145Z,47.67
2019-02-05T10:06:02.579Z,44.43
2019-02-05T10:08:30.235Z,51.63
2019-02-05T10:10:57.785Z,44.30
2019-02-05T10:13:31.303Z,47.63
2019-02-05T10:15:58.859Z,47.70
2019-02-05T10:18:32.239Z,43.50
2019-02-05T10:21:01.931Z,43.87
2019-02-05T10:23:31.167Z,41.70
2019-02-05T10:25:59.969Z,38.37
2019-02-05T10:28:27.951Z,36.80
2019-02-05T10:30:55.511Z,38.70
2019-02-05T10:33:23.067Z,36.97
2019-02-05T10:35:50.543Z,34.23
2019-02-05T10:38:17.988Z,31.37
2019-02-05T10:40:45.939Z,31.20
2019-02-05T10:43:13.574Z,30.00
2019-02-05T10:45:47.235Z,29.10
2019-02-05T10:48:14.900Z,28.37
2019-02-05T10:50:42.354Z,30.17
2019-02-05T10:53:10.636Z,31.30
2019-02-05T10:55:38.884Z,33.03
2019-02-05T10:58:07.554Z,37.23
2019-02-05T11:00:35.291Z,30.30
2019-02-05T11:03:04.181Z,37.80
2019-02-05T11:05:32.287Z,43.17
2019-02-05T11:07:59.789Z,31.40
2019-02-05T11:10:27.324Z,30.87
2019-02-05T11:12:56.599Z,34.30
2019-02-05T11:15:26.366Z,33.87
2019-02-05T11:17:54.044Z,31.30
2019-02-05T11:20:23.500Z,29.20
2019-02-05T11:22:51.038Z,35.40
2019-02-05T11:25:20.329Z,31.40
2019-02-05T11:27:48.052Z,33.57
2019-02-05T11:30:38.693Z,34.33
2019-02-05T11:33:06.540Z,31.73
2019-02-05T11:35:34.479Z,33.43
2019-02-05T11:38:02.626Z,32.70
2019-02-05T11:40:31.911Z,28.37
2019-02-05T11:42:59.534Z,23.93
2019-02-05T11:45:28.300Z,27.00
2019-02-05T11:47:57.085Z,27.07
2019-02-05T11:50:24.770Z,24.43
2019-02-05T11:52:53.448Z,22.73
2019-02-05T11:55:22.835Z,22.80
2019-02-05T11:57:50.731Z,23.57
2019-02-05T12:00:38.687Z,26.57
2019-02-05T12:03:07.555Z,22.23
2019-02-05T12:05:36.087Z,25.53
2019-02-05T12:08:04.440Z,20.93
2019-02-05T12:10:32.439Z,23.40
2019-02-05T12:13:02.020Z,23.10
2019-02-05T12:15:29.622Z,20.53
2019-02-05T12:17:57.237Z,23.20
2019-02-05T12:20:24.625Z,20.77
2019-02-05T12:22:52.305Z,20.90
2019-02-05T12:25:20.236Z,25.07
2019-02-05T12:27:47.718Z,22.00
2019-02-05T12:30:21.194Z,23.20
2019-02-05T12:32:48.698Z,23.37
2019-02-05T12:35:17.015Z,20.53
2019-02-05T12:37:45.034Z,22.80
2019-02-05T12:40:13.665Z,23.83
2019-02-05T12:42:41.462Z,30.70
2019-02-05T12:45:11.449Z,24.90
2019-02-05T12:47:39.927Z,22.13
2019-02-05T12:50:11.980Z,25.40
2019-02-05T12:52:39.561Z,23.70
2019-02-05T12:55:13.162Z,22.87
2019-02-05T12:57:36.921Z,19.03
2019-02-05T13:00:11.758Z,20.13
2019-02-05T13:02:39.640Z,16.53
2019-02-05T13:05:07.482Z,22.17
2019-02-05T13:07:34.909Z,23.23
2019-02-05T13:10:02.320Z,25.40
2019-02-05T13:12:31.194Z,20.90
2019-02-05T13:14:58.755Z,18.57
2019-02-05T13:17:26.232Z,17.57
2019-02-05T13:19:54.217Z,23.37
2019-02-05T13:22:22.016Z,18.50
2019-02-05T13:24:49.484Z,18.07
2019-02-05T13:27:16.979Z,18.70
2019-02-05T13:29:44.490Z,15.23
2019-02-05T13:32:12.814Z,19.07
2019-02-05T13:34:40.326Z,19.90
2019-02-05T13:37:08.682Z,19.77
2019-02-05T13:39:36.262Z,15.77
2019-02-05T13:42:03.633Z,20.40
2019-02-05T13:44:31.087Z,17.30
2019-02-05T13:46:58.926Z,19.23
2019-02-05T13:49:26.361Z,22.53
2019-02-05T13:51:55.722Z,18.30
2019-02-05T13:54:23.527Z,19.07
2019-02-05T13:56:51.793Z,18.13
2019-02-05T13:59:19.407Z,20.37
2019-02-05T14:01:46.904Z,20.53
2019-02-05T14:04:14.869Z,18.23
2019-02-05T14:06:42.352Z,18.50
2019-02-05T14:09:12.397Z,27.67
2019-02-05T14:11:40.790Z,20.93
2019-02-05T14:14:08.318Z,16.80
2019-02-05T14:16:35.785Z,17.30
2019-02-05T14:19:03.136Z,16.27
2019-02-05T14:21:31.247Z,16.43
2019-02-05T14:23:58.770Z,18.17
2019-02-05T14:26:27.068Z,23.17
2019-02-05T14:28:55.045Z,15.03
2019-02-05T14:31:31.109Z,12.43
2019-02-05T14:33:52.123Z,17.70
2019-02-05T14:36:20.457Z,18.03
2019-02-05T14:38:48.988Z,19.10
2019-02-05T14:41:16.746Z,15.17
2019-02-05T14:43:44.237Z,18.40
2019-02-05T14:46:13.187Z,16.63
2019-02-05T14:48:41.083Z,17.10
2019-02-05T14:51:08.403Z,16.10
2019-02-05T14:53:35.858Z,26.03
2019-02-05T14:56:03.833Z,21.60
2019-02-05T14:58:31.527Z,21.03
2019-02-05T15:00:58.973Z,36.40
2019-02-05T15:03:26.864Z,44.73
2019-02-05T15:05:57.426Z,36.17
2019-02-05T15:08:24.925Z,27.17
2019-02-05T15:10:52.449Z,26.80
2019-02-05T15:13:20.617Z,25.53
2019-02-05T15:15:49.967Z,42.27
2019-02-05T15:18:19.695Z,52.97
2019-02-05T15:20:49.300Z,26.17
2019-02-05T15:23:16.893Z,20.40
2019-02-05T15:25:44.455Z,23.07
2019-02-05T15:28:12.251Z,95.77
2019-02-05T15:30:41.020Z,37.70
2019-02-05T15:33:30.341Z,39.83
2019-02-05T15:36:00.642Z,29.40
2019-02-05T15:38:29.072Z,38.37
2019-02-05T15:40:57.042Z,34.90
2019-02-05T15:43:24.505Z,36.13
2019-02-05T15:45:52.509Z,39.07
2019-02-05T15:48:20.191Z,33.13
2019-02-05T15:50:47.545Z,33.50
2019-02-05T15:53:15.777Z,23.53
2019-02-05T15:55:43.591Z,27.23
2019-02-05T15:58:10.893Z,22.87
2019-02-05T16:00:38.372Z,21.43
2019-02-05T16:03:06.709Z,24.83
2019-02-05T16:05:34.665Z,21.13
2019-02-05T16:08:02.344Z,20.50
2019-02-05T16:10:29.778Z,18.23
2019-02-05T16:12:57.650Z,17.20
2019-02-05T16:15:25.183Z,16.30
2019-02-05T16:17:52.624Z,16.40
2019-02-05T16:20:20.234Z,15.93
2019-02-05T16:22:48.748Z,16.27
2019-02-05T16:25:16.304Z,20.03
2019-02-05T16:27:43.741Z,14.10
2019-02-05T16:30:14.694Z,18.53
2019-02-05T16:32:42.270Z,18.43
2019-02-05T16:35:09.979Z,19.67
2019-02-05T16:37:37.465Z,21.93
2019-02-05T16:40:08.846Z,20.80
2019-02-05T16:42:36.320Z,18.03
2019-02-05T16:45:06.383Z,24.50
2019-02-05T16:47:33.990Z,25.37
2019-02-05T16:50:01.501Z,26.10
2019-02-05T16:52:29.253Z,27.47
2019-02-05T16:54:56.824Z,27.90
2019-02-05T16:57:24.236Z,30.03
2019-02-05T16:59:51.656Z,29.07
2019-02-05T17:02:28.699Z,23.73
2019-02-05T17:04:48.882Z,24.23
2019-02-05T17:07:16.286Z,27.07
2019-02-05T17:09:43.803Z,26.97
2019-02-05T17:12:11.297Z,19.97
2019-02-05T17:14:38.811Z,23.37
2019-02-05T17:17:06.401Z,23.30
2019-02-05T17:19:33.812Z,20.37
2019-02-05T17:22:01.327Z,20.23
2019-02-05T17:24:28.825Z,20.67
2019-02-05T17:26:56.189Z,21.60
2019-02-05T17:29:23.599Z,20.17
2019-02-05T17:31:51.427Z,20.97
2019-02-05T17:34:18.991Z,18.50
2019-02-05T17:36:46.497Z,19.23
2019-02-05T17:39:14.197Z,21.43
2019-02-05T17:41:41.683Z,22.47
2019-02-05T17:44:09.156Z,21.63
2019-02-05T17:46:37.608Z,22.83
2019-02-05T17:49:05.015Z,22.73
2019-02-05T17:51:32.599Z,22.90
2019-02-05T17:54:00.498Z,24.80
2019-02-05T17:56:28.120Z,24.03
2019-02-05T17:58:55.601Z,26.40
2019-02-05T18:01:23.238Z,22.07
2019-02-05T18:03:50.747Z,23.93
2019-02-05T18:06:20.133Z,26.93
2019-02-05T18:08:47.995Z,30.07
2019-02-05T18:11:15.498Z,32.17
2019-02-05T18:13:42.997Z,24.13
2019-02-05T18:16:13.468Z,35.77
2019-02-05T18:18:41.311Z,24.67
2019-02-05T18:21:08.695Z,31.27
2019-02-05T18:23:36.210Z,27.83
2019-02-05T18:26:04.067Z,26.40
2019-02-05T18:28:31.586Z,25.63
2019-02-05T18:30:59.180Z,27.97
2019-02-05T18:33:27.075Z,21.10
2019-02-05T18:35:54.664Z,29.73
2019-02-05T18:38:22.108Z,23.10
2019-02-05T18:40:49.678Z,23.27
2019-02-05T18:43:17.395Z,27.60
2019-02-05T18:45:44.963Z,27.13
2019-02-05T18:48:12.437Z,31.87
2019-02-05T18:50:39.945Z,31.30
2019-02-05T18:53:07.501Z,28.83
2019-02-05T18:55:35.293Z,36.10
2019-02-05T18:58:09.303Z,45.77
2019-02-05T19:00:34.634Z,49.53
2019-02-05T19:03:02.508Z,44.93
2019-02-05T19:05:30.404Z,42.87
2019-02-05T19:07:57.997Z,33.60
2019-02-05T19:10:26.325Z,30.43
2019-02-05T19:12:53.667Z,28.27
2019-02-05T19:15:25.826Z,26.00
2019-02-05T19:17:53.333Z,25.23
2019-02-05T19:20:23.392Z,25.80
2019-02-05T19:22:50.878Z,19.50
2019-02-05T19:25:50.606Z,21.70
2019-02-05T19:28:27.123Z,20.10
2019-02-05T19:30:57.264Z,21.67
2019-02-05T19:33:27.196Z,20.40
2019-02-05T19:35:54.036Z,24.93
2019-02-05T19:38:21.891Z,26.63
2019-02-05T19:40:57.120Z,21.43
2019-02-05T19:43:18.841Z,22.87
2019-02-05T19:46:09.719Z,26.50
2019-02-05T19:48:49.056Z,22.27
2019-02-05T19:51:16.792Z,22.00
2019-02-05T19:53:44.330Z,24.20
2019-02-05T19:56:14.545Z,26.17
2019-02-05T19:58:41.216Z,26.33
2019-02-05T20:01:08.696Z,25.63
2019-02-05T20:03:38.710Z,22.97
2019-02-05T20:06:05.829Z,23.90
2019-02-05T20:08:33.427Z,25.90
2019-02-05T20:11:00.915Z,26.50
2019-02-05T20:13:39.630Z,26.27
2019-02-05T20:15:58.077Z,27.53
2019-02-05T20:18:25.513Z,39.90
2019-02-05T20:20:52.839Z,31.37
2019-02-05T20:23:20.352Z,36.20
2019-02-05T20:25:47.808Z,28.13
2019-02-05T20:28:15.218Z,28.47
2019-02-05T20:30:42.651Z,26.80
2019-02-05T20:33:10.151Z,29.93
2019-02-05T20:35:37.567Z,35.13
2019-02-05T20:38:04.937Z,43.60
2019-02-05T20:40:32.847Z,40.70
2019-02-05T20:43:00.223Z,39.10
2019-02-05T20:45:27.700Z,42.87
2019-02-05T20:47:56.065Z,44.33
2019-02-05T20:50:23.637Z,33.43
2019-02-05T20:52:51.456Z,38.50
2019-02-05T20:55:18.956Z,43.43
2019-02-05T20:57:46.365Z,41.27
2019-02-05T21:00:18.418Z,41.70
2019-02-05T21:02:45.829Z,39.77
2019-02-05T21:05:14.711Z,42.70
2019-02-05T21:07:42.278Z,46.37
2019-02-05T21:10:13.305Z,41.87
2019-02-05T21:12:40.818Z,44.00
2019-02-05T21:15:09.956Z,41.70
2019-02-05T21:17:37.543Z,32.77
2019-02-05T21:20:06.272Z,39.00
2019-02-05T21:22:33.776Z,33.07
2019-02-05T21:25:01.067Z,32.80
2019-02-05T21:27:28.650Z,33.10
2019-02-05T21:29:56.444Z,32.63
2019-02-05T21:32:23.900Z,31.40
2019-02-05T21:34:51.347Z,36.50
2019-02-05T21:37:18.815Z,31.17
2019-02-05T21:39:46.573Z,30.20
2019-02-05T21:42:14.099Z,33.33
2019-02-05T21:44:41.566Z,31.40
2019-02-05T21:47:09.335Z,31.10
2019-02-05T21:49:36.844Z,36.47
2019-02-05T21:52:04.682Z,33.40
2019-02-05T21:54:32.281Z,32.53
2019-02-05T21:57:00.183Z,32.40
2019-02-05T21:59:27.688Z,32.70
2019-02-05T22:01:55.357Z,33.77
2019-02-05T22:04:27.182Z,38.23
2019-02-05T22:06:52.281Z,42.83
2019-02-05T22:09:20.021Z,42.63
2019-02-05T22:11:47.939Z,41.43
2019-02-05T22:14:15.547Z,47.67
2019-02-05T22:16:43.175Z,41.17
2019-02-05T22:19:11.048Z,39.47
2019-02-05T22:21:38.429Z,38.30
2019-02-05T22:24:05.995Z,35.73
2019-02-05T22:26:33.578Z,30.03
2019-02-05T22:29:02.372Z,27.20
2019-02-05T22:31:29.846Z,29.53
2019-02-05T22:33:57.391Z,25.63
2019-02-05T22:36:24.876Z,25.30
2019-02-05T22:38:52.431Z,25.47
2019-02-05T22:41:20.199Z,27.20
2019-02-05T22:43:47.684Z,24.73
2019-02-05T22:46:15.288Z,27.17
2019-02-05T22:48:42.770Z,27.50
2019-02-05T22:51:10.253Z,27.00
2019-02-05T22:53:37.788Z,26.63
2019-02-05T22:56:05.378Z,28.73
2019-02-05T22:58:32.853Z,25.60
2019-02-05T23:01:21.927Z,30.53
2019-02-05T23:04:00.890Z,27.20
2019-02-05T23:07:02.183Z,30.17
2019-02-05T23:09:46.636Z,24.20
2019-02-05T23:12:27.959Z,37.40
2019-02-05T23:15:02.099Z,33.53
2019-02-05T23:17:29.782Z,30.03
2019-02-05T23:19:57.485Z,27.47
2019-02-05T23:22:24.975Z,34.20
2019-02-05T23:24:52.523Z,33.17
2019-02-05T23:27:20.350Z,29.50
2019-02-05T23:29:47.861Z,28.20
2019-02-05T23:32:15.195Z,29.67
2019-02-05T23:34:42.583Z,29.77
2019-02-05T23:37:09.927Z,28.80
2019-02-05T23:39:37.794Z,29.63
2019-02-05T23:42:05.706Z,27.57
2019-02-05T23:44:33.795Z,28.03
2019-02-05T23:47:01.375Z,27.60
2019-02-05T23:49:28.803Z,26.23
2019-02-05T23:51:56.414Z,27.23
2019-02-05T23:54:24.006Z,26.30
2019-02-05T23:56:52.060Z,25.57
2019-02-05T23:59:19.560Z,35.33
